Time,TemperatureF,DewpointF,PressureIn,WindDirection,WindDirectionDegrees,WindSpeedMPH,WindSpeedGustMPH,Humidity,HourlyPrecipIn,Conditions,Clouds,dailyrainin,SoftwareType,DateUTC
2013-02-12 00:00:00,42.1,40.0,30.14,WSW,248,0.0,0.9,92,0.00,,,0.00,WUHU216HW,2013-02-12 08:00:00,
2013-02-12 00:05:00,42.1,40.0,30.14,SSE,158,0.0,0.9,92,0.00,,,0.00,WUHU216HW,2013-02-12 08:05:00,
2013-02-12 00:10:00,42.1,40.0,30.14,SSE,158,0.0,0.0,92,0.00,,,0.00,WUHU216HW,2013-02-12 08:10:00,
2013-02-12 00:15:00,42.1,40.0,30.14,SSE,158,0.0,0.0,92,0.00,,,0.00,WUHU216HW,2013-02-12 08:15:00,
2013-02-12 00:25:00,42.1,40.0,30.14,SE,135,1.1,1.1,92,0.00,,,0.00,WUHU216HW,2013-02-12 08:25:00,
2013-02-12 00:30:00,42.1,40.0,30.14,SSE,158,0.7,1.1,92,0.00,,,0.00,WUHU216HW,2013-02-12 08:30:00,
2013-02-12 00:35:00,42.1,40.0,30.14,SSE,158,1.1,1.3,92,0.00,,,0.00,WUHU216HW,2013-02-12 08:35:00,
2013-02-12 00:40:00,42.1,40.0,30.14,SSE,158,2.2,2.5,92,0.00,,,0.00,WUHU216HW,2013-02-12 08:40:00,
2013-02-12 00:45:00,42.1,40.0,30.14,SSE,158,1.8,2.5,92,0.00,,,0.00,WUHU216HW,2013-02-12 08:45:00,
2013-02-12 00:50:00,42.1,40.0,30.14,SSE,158,1.6,2.5,92,0.00,,,0.00,WUHU216HW,2013-02-12 08:50:00,
2013-02-12 00:55:00,42.3,40.1,30.14,SSE,158,2.0,2.2,92,0.00,,,0.00,WUHU216HW,2013-02-12 08:55:00,
2013-02-12 01:00:00,42.3,40.4,30.14,SSE,158,1.8,2.5,93,0.00,,,0.00,WUHU216HW,2013-02-12 09:00:00,
2013-02-12 01:05:00,42.3,40.1,30.14,SE,135,1.3,2.5,92,0.00,,,0.00,WUHU216HW,2013-02-12 09:05:00,
2013-02-12 01:10:00,42.3,40.4,30.14,SE,135,1.8,1.8,93,0.00,,,0.00,WUHU216HW,2013-02-12 09:10:00,
2013-02-12 01:15:00,42.3,40.4,30.14,SSE,158,1.8,2.5,93,0.00,,,0.00,WUHU216HW,2013-02-12 09:15:00,
2013-02-12 01:20:00,42.3,40.4,30.14,SSE,158,2.0,2.5,93,0.00,,,0.00,WUHU216HW,2013-02-12 09:20:00,
2013-02-12 01:25:00,42.3,40.4,30.14,SE,135,2.5,2.9,93,0.00,,,0.00,WUHU216HW,2013-02-12 09:25:00,
2013-02-12 01:30:00,42.3,40.4,30.14,SSE,158,2.7,2.9,93,0.00,,,0.00,WUHU216HW,2013-02-12 09:30:00,
2013-02-12 01:35:00,42.3,40.4,30.14,SE,135,3.1,3.1,93,0.00,,,0.00,WUHU216HW,2013-02-12 09:35:00,
2013-02-12 01:40:00,42.3,40.4,30.14,SE,135,3.4,3.4,93,0.00,,,0.00,WUHU216HW,2013-02-12 09:40:00,
2013-02-12 01:45:00,42.5,40.6,30.14,SE,135,3.1,3.4,93,0.00,,,0.00,WUHU216HW,2013-02-12 09:45:00,
2013-02-12 01:50:00,42.5,40.6,30.14,ESE,113,3.4,4.0,93,0.00,,,0.00,WUHU216HW,2013-02-12 09:50:00,
2013-02-12 01:55:00,42.5,40.6,30.14,ESE,113,3.4,4.0,93,0.00,,,0.00,WUHU216HW,2013-02-12 09:55:00,
2013-02-12 02:00:00,42.7,40.8,30.14,ESE,113,3.4,4.0,93,0.00,,,0.00,WUHU216HW,2013-02-12 10:00:00,
2013-02-12 02:05:00,42.7,40.8,30.14,SE,135,2.5,4.3,93,0.00,,,0.00,WUHU216HW,2013-02-12 10:05:00,
2013-02-12 02:10:00,42.7,40.8,30.14,SE,135,2.0,4.3,93,0.00,,,0.00,WUHU216HW,2013-02-12 10:10:00,
2013-02-12 02:15:00,42.7,40.8,30.14,ESE,113,2.5,3.4,93,0.00,,,0.00,WUHU216HW,2013-02-12 10:15:00,
2013-02-12 02:20:00,42.5,40.6,30.14,SE,135,2.7,3.4,93,0.00,,,0.00,WUHU216HW,2013-02-12 10:20:00,
2013-02-12 02:25:00,42.5,40.6,30.14,SE,135,1.8,2.7,93,0.00,,,0.00,WUHU216HW,2013-02-12 10:25:00,
2013-02-12 02:30:00,42.5,40.6,30.14,SE,135,1.1,2.7,93,0.00,,,0.00,WUHU216HW,2013-02-12 10:30:00,
2013-02-12 02:35:00,42.3,40.4,30.14,SSE,158,1.6,2.2,93,0.00,,,0.00,WUHU216HW,2013-02-12 10:35:00,
2013-02-12 02:40:00,42.3,40.4,30.14,South,180,1.3,2.2,93,0.00,,,0.00,WUHU216HW,2013-02-12 10:40:00,
2013-02-12 02:45:00,42.3,40.4,30.14,SE,135,1.3,2.0,93,0.00,,,0.00,WUHU216HW,2013-02-12 10:45:00,
2013-02-12 02:50:00,42.3,40.4,30.14,SE,135,1.3,1.8,93,0.00,,,0.00,WUHU216HW,2013-02-12 10:50:00,
2013-02-12 02:55:00,42.3,40.4,30.14,SSE,158,1.6,2.0,93,0.00,,,0.00,WUHU216HW,2013-02-12 10:55:00,
2013-02-12 03:00:00,42.1,40.2,30.13,South,180,1.3,2.2,93,0.00,,,0.00,WUHU216HW,2013-02-12 11:00:00,
2013-02-12 03:05:00,42.1,40.2,30.13,SSW,203,1.3,2.2,93,0.00,,,0.00,WUHU216HW,2013-02-12 11:05:00,
2013-02-12 03:10:00,42.1,40.2,30.13,South,180,1.6,2.2,93,0.00,,,0.00,WUHU216HW,2013-02-12 11:10:00,
2013-02-12 03:15:00,42.1,40.2,30.13,SSE,158,0.7,2.2,93,0.00,,,0.00,WUHU216HW,2013-02-12 11:15:00,
2013-02-12 03:20:00,42.1,40.2,30.13,WSW,248,1.1,1.6,93,0.00,,,0.00,WUHU216HW,2013-02-12 11:20:00,
2013-02-12 03:25:00,42.1,40.2,30.13,SW,225,0.4,1.3,93,0.00,,,0.00,WUHU216HW,2013-02-12 11:25:00,
2013-02-12 03:30:00,41.9,40.1,30.13,SW,225,0.0,1.3,93,0.00,,,0.00,WUHU216HW,2013-02-12 11:30:00,
2013-02-12 03:35:00,41.8,39.9,30.13,SW,225,0.4,0.7,93,0.00,,,0.00,WUHU216HW,2013-02-12 11:35:00,
2013-02-12 03:40:00,41.9,40.1,30.13,South,180,1.6,2.5,93,0.00,,,0.00,WUHU216HW,2013-02-12 11:40:00,
2013-02-12 03:45:00,41.9,40.1,30.13,SSE,158,2.5,2.5,93,0.00,,,0.00,WUHU216HW,2013-02-12 11:45:00,
2013-02-12 03:50:00,41.9,40.1,30.13,SSE,158,2.0,2.5,93,0.00,,,0.00,WUHU216HW,2013-02-12 11:50:00,
2013-02-12 03:55:00,41.9,40.1,30.13,SSW,203,1.3,2.7,93,0.00,,,0.00,WUHU216HW,2013-02-12 11:55:00,
2013-02-12 04:00:00,41.9,40.1,30.13,WSW,248,0.7,2.7,93,0.00,,,0.00,WUHU216HW,2013-02-12 12:00:00,
2013-02-12 04:05:00,41.9,40.1,30.12,SSE,158,0.9,1.3,93,0.00,,,0.00,WUHU216HW,2013-02-12 12:05:00,
2013-02-12 04:10:00,41.9,40.1,30.12,South,180,1.3,1.8,93,0.00,,,0.00,WUHU216HW,2013-02-12 12:10:00,
2013-02-12 04:15:00,41.9,40.1,30.13,South,180,0.4,1.8,93,0.00,,,0.00,WUHU216HW,2013-02-12 12:15:00,
2013-02-12 04:20:00,41.9,40.1,30.13,SW,225,0.4,1.6,93,0.00,,,0.00,WUHU216HW,2013-02-12 12:20:00,
2013-02-12 04:25:00,41.9,40.1,30.13,SSW,203,0.4,1.6,93,0.00,,,0.00,WUHU216HW,2013-02-12 12:25:00,
2013-02-12 04:30:00,41.9,40.1,30.13,WSW,248,0.0,1.1,93,0.00,,,0.00,WUHU216HW,2013-02-12 12:30:00,
2013-02-12 04:35:00,41.9,40.1,30.13,WSW,248,0.9,1.1,93,0.00,,,0.00,WUHU216HW,2013-02-12 12:35:00,
2013-02-12 04:40:00,41.9,40.1,30.13,WSW,248,0.0,0.9,93,0.00,,,0.00,WUHU216HW,2013-02-12 12:40:00,
2013-02-12 04:45:00,41.9,40.1,30.13,SSW,203,0.4,0.9,93,0.00,,,0.00,WUHU216HW,2013-02-12 12:45:00,
2013-02-12 04:50:00,41.9,40.1,30.13,South,180,1.8,2.0,93,0.00,,,0.00,WUHU216HW,2013-02-12 12:50:00,
2013-02-12 04:55:00,41.9,40.1,30.13,SSE,158,2.0,2.2,93,0.00,,,0.00,WUHU216HW,2013-02-12 12:55:00,
2013-02-12 05:00:00,41.9,40.1,30.13,SSE,158,1.3,2.5,93,0.00,,,0.00,WUHU216HW,2013-02-12 13:00:00,
2013-02-12 05:05:00,42.1,40.2,30.13,South,180,1.1,2.5,93,0.00,,,0.00,WUHU216HW,2013-02-12 13:05:00,
2013-02-12 05:10:00,42.1,40.2,30.14,SW,225,0.2,2.0,93,0.00,,,0.00,WUHU216HW,2013-02-12 13:10:00,
2013-02-12 05:15:00,42.1,40.2,30.14,West,270,0.0,1.3,93,0.00,,,0.00,WUHU216HW,2013-02-12 13:15:00,
2013-02-12 05:20:00,42.1,40.2,30.14,NNW,338,0.0,0.7,93,0.00,,,0.00,WUHU216HW,2013-02-12 13:20:00,
2013-02-12 05:25:00,42.1,40.2,30.14,NW,315,0.0,0.7,93,0.00,,,0.00,WUHU216HW,2013-02-12 13:25:00,
2013-02-12 05:30:00,42.1,40.2,30.14,NNW,338,0.0,0.0,93,0.00,,,0.00,WUHU216HW,2013-02-12 13:30:00,
2013-02-12 05:35:00,42.1,40.2,30.15,NNW,338,0.0,0.7,93,0.00,,,0.00,WUHU216HW,2013-02-12 13:35:00,
2013-02-12 05:40:00,42.1,40.5,30.14,NW,315,0.0,0.7,94,0.00,,,0.00,WUHU216HW,2013-02-12 13:40:00,
2013-02-12 05:45:00,42.1,40.5,30.15,WNW,293,0.4,0.9,94,0.00,,,0.00,WUHU216HW,2013-02-12 13:45:00,
2013-02-12 05:50:00,42.1,40.2,30.14,WNW,293,0.0,0.9,93,0.00,,,0.00,WUHU216HW,2013-02-12 13:50:00,
2013-02-12 05:55:00,42.1,40.2,30.14,WNW,293,0.0,0.4,93,0.00,,,0.00,WUHU216HW,2013-02-12 13:55:00,
2013-02-12 06:00:00,42.1,40.2,30.14,WNW,293,0.0,0.0,93,0.00,,,0.00,WUHU216HW,2013-02-12 14:00:00,
2013-02-12 06:05:00,42.1,40.2,30.14,SSE,158,0.2,0.4,93,0.00,,,0.00,WUHU216HW,2013-02-12 14:05:00,
2013-02-12 06:10:00,42.1,40.2,30.14,SSE,158,0.0,0.4,93,0.00,,,0.00,WUHU216HW,2013-02-12 14:10:00,
2013-02-12 06:15:00,42.1,40.2,30.14,SW,225,0.0,0.4,93,0.00,,,0.00,WUHU216HW,2013-02-12 14:15:00,
2013-02-12 06:20:00,42.1,40.2,30.14,SW,225,0.0,0.4,93,0.00,,,0.00,WUHU216HW,2013-02-12 14:20:00,
2013-02-12 06:25:00,42.1,40.2,30.15,SW,225,0.0,0.0,93,0.00,,,0.00,WUHU216HW,2013-02-12 14:25:00,
2013-02-12 06:30:00,42.1,40.2,30.15,SW,225,0.0,0.0,93,0.00,,,0.00,WUHU216HW,2013-02-12 14:30:00,
2013-02-12 06:35:00,42.1,40.2,30.15,SW,225,0.0,0.0,93,0.00,,,0.00,WUHU216HW,2013-02-12 14:35:00,
2013-02-12 06:40:00,42.1,40.2,30.15,South,180,0.0,0.0,93,0.00,,,0.00,WUHU216HW,2013-02-12 14:40:00,
2013-02-12 06:45:00,42.1,40.2,30.15,SSE,158,0.0,0.2,93,0.00,,,0.00,WUHU216HW,2013-02-12 14:45:00,
2013-02-12 06:50:00,42.1,40.2,30.15,SSE,158,0.0,0.7,93,0.00,,,0.00,WUHU216HW,2013-02-12 14:50:00,
2013-02-12 06:55:00,42.1,40.2,30.15,SSE,158,0.0,0.7,93,0.00,,,0.00,WUHU216HW,2013-02-12 14:55:00,
2013-02-12 07:00:00,42.1,40.2,30.14,SSE,158,0.9,0.9,93,0.00,,,0.00,WUHU216HW,2013-02-12 15:00:00,
2013-02-12 07:05:00,42.1,40.2,30.15,SSE,158,0.9,0.9,93,0.00,,,0.00,WUHU216HW,2013-02-12 15:05:00,
2013-02-12 07:10:00,42.1,40.2,30.15,SE,135,0.7,1.1,93,0.00,,,0.00,WUHU216HW,2013-02-12 15:10:00,
2013-02-12 07:15:00,41.9,40.1,30.15,SE,135,1.1,1.3,93,0.00,,,0.00,WUHU216HW,2013-02-12 15:15:00,
2013-02-12 07:20:00,41.9,40.1,30.15,SE,135,1.1,1.3,93,0.00,,,0.00,WUHU216HW,2013-02-12 15:20:00,
2013-02-12 07:25:00,41.8,39.9,30.15,SSE,158,0.9,1.3,93,0.00,,,0.00,WUHU216HW,2013-02-12 15:25:00,
2013-02-12 07:30:00,41.8,39.9,30.15,SSE,158,0.4,1.8,93,0.00,,,0.00,WUHU216HW,2013-02-12 15:30:00,
2013-02-12 07:35:00,41.8,39.9,30.15,South,180,1.1,1.8,93,0.00,,,0.00,WUHU216HW,2013-02-12 15:35:00,
2013-02-12 07:40:00,41.8,39.9,30.15,South,180,1.8,1.8,93,0.00,,,0.00,WUHU216HW,2013-02-12 15:40:00,
2013-02-12 07:45:00,41.9,40.1,30.16,SSE,158,2.0,2.5,93,0.00,,,0.00,WUHU216HW,2013-02-12 15:45:00,
2013-02-12 07:50:00,41.9,40.1,30.16,SSW,203,1.6,2.5,93,0.00,,,0.00,WUHU216HW,2013-02-12 15:50:00,
2013-02-12 07:55:00,42.1,40.2,30.16,SSE,158,1.3,2.0,93,0.00,,,0.00,WUHU216HW,2013-02-12 15:55:00,
2013-02-12 08:00:00,42.1,40.2,30.16,SSE,158,1.6,2.5,93,0.00,,,0.00,WUHU216HW,2013-02-12 16:00:00,
2013-02-12 08:05:00,42.3,40.4,30.17,SSE,158,1.8,2.5,93,0.00,,,0.00,WUHU216HW,2013-02-12 16:05:00,
2013-02-12 08:10:00,42.3,40.4,30.17,South,180,1.3,2.2,93,0.00,,,0.00,WUHU216HW,2013-02-12 16:10:00,
2013-02-12 08:15:00,42.5,40.6,30.17,SSE,158,1.8,2.0,93,0.00,,,0.00,WUHU216HW,2013-02-12 16:15:00,
2013-02-12 08:20:00,42.5,40.6,30.17,SSE,158,2.5,2.5,93,0.00,,,0.00,WUHU216HW,2013-02-12 16:20:00,
2013-02-12 08:25:00,42.7,40.8,30.17,SSE,158,2.5,2.7,93,0.00,,,0.00,WUHU216HW,2013-02-12 16:25:00,
2013-02-12 08:30:00,42.8,41.0,30.17,SSE,158,1.6,2.7,93,0.00,,,0.00,WUHU216HW,2013-02-12 16:30:00,
2013-02-12 08:35:00,42.8,41.0,30.17,SSE,158,1.6,2.5,93,0.00,,,0.00,WUHU216HW,2013-02-12 16:35:00,
2013-02-12 08:40:00,43.2,41.3,30.17,SSE,158,2.2,2.7,93,0.00,,,0.00,WUHU216HW,2013-02-12 16:40:00,
2013-02-12 08:45:00,43.6,41.9,30.18,SE,135,2.5,2.9,94,0.00,,,0.00,WUHU216HW,2013-02-12 16:45:00,
2013-02-12 08:50:00,43.6,41.9,30.18,SSE,158,1.8,2.9,94,0.00,,,0.00,WUHU216HW,2013-02-12 16:50:00,
2013-02-12 08:55:00,43.9,42.0,30.18,SSE,158,2.0,2.2,93,0.00,,,0.00,WUHU216HW,2013-02-12 16:55:00,
2013-02-12 09:00:00,44.1,42.2,30.18,SSE,158,2.5,2.5,93,0.00,,,0.00,WUHU216HW,2013-02-12 17:00:00,
2013-02-12 09:05:00,44.5,42.6,30.18,SSE,158,2.9,3.8,93,0.00,,,0.00,WUHU216HW,2013-02-12 17:05:00,
2013-02-12 09:10:00,44.6,42.8,30.18,SE,135,2.9,3.8,93,0.00,,,0.00,WUHU216HW,2013-02-12 17:10:00,
2013-02-12 09:15:00,44.8,42.9,30.18,SSE,158,2.7,3.4,93,0.00,,,0.00,WUHU216HW,2013-02-12 17:15:00,
2013-02-12 09:20:00,45.0,43.1,30.18,SSE,158,2.5,3.4,93,0.00,,,0.00,WUHU216HW,2013-02-12 17:20:00,
2013-02-12 09:25:00,45.2,43.3,30.18,SE,135,2.5,3.4,93,0.00,,,0.00,WUHU216HW,2013-02-12 17:25:00,
2013-02-12 09:30:00,45.4,43.5,30.18,SE,135,1.6,3.1,93,0.00,,,0.00,WUHU216HW,2013-02-12 17:30:00,
2013-02-12 09:35:00,45.4,43.5,30.18,SE,135,0.2,2.5,93,0.00,,,0.00,WUHU216HW,2013-02-12 17:35:00,
2013-02-12 09:40:00,45.5,43.7,30.18,SSW,203,0.0,1.8,93,0.00,,,0.00,WUHU216HW,2013-02-12 17:40:00,
2013-02-12 09:45:00,45.7,43.8,30.19,SW,225,0.0,0.4,93,0.00,,,0.00,WUHU216HW,2013-02-12 17:45:00,
2013-02-12 09:50:00,46.3,44.6,30.19,NW,315,0.0,0.0,94,0.00,,,0.00,WUHU216HW,2013-02-12 17:50:00,
2013-02-12 09:55:00,47.0,45.4,30.19,NW,315,0.0,0.7,94,0.00,,,0.00,WUHU216HW,2013-02-12 17:55:00,
2013-02-12 10:00:00,47.9,46.3,30.18,South,180,1.8,1.8,94,0.00,,,0.00,WUHU216HW,2013-02-12 18:00:00,
2013-02-12 10:05:00,48.2,46.4,30.18,SSE,158,1.8,2.2,93,0.00,,,0.00,WUHU216HW,2013-02-12 18:05:00,
2013-02-12 10:10:00,48.2,46.1,30.18,ESE,113,3.4,3.4,92,0.00,,,0.00,WUHU216HW,2013-02-12 18:10:00,
2013-02-12 10:15:00,48.4,46.3,30.19,SE,135,2.0,3.4,92,0.00,,,0.00,WUHU216HW,2013-02-12 18:15:00,
2013-02-12 10:20:00,48.4,46.0,30.19,ESE,113,3.6,4.0,91,0.00,,,0.00,WUHU216HW,2013-02-12 18:20:00,
2013-02-12 10:25:00,48.4,46.0,30.19,ESE,113,3.1,4.0,91,0.00,,,0.00,WUHU216HW,2013-02-12 18:25:00,
2013-02-12 10:30:00,48.4,46.0,30.19,ESE,113,3.4,4.0,91,0.00,,,0.00,WUHU216HW,2013-02-12 18:30:00,
2013-02-12 10:35:00,48.6,46.2,30.19,ESE,113,1.8,4.0,91,0.00,,,0.00,WUHU216HW,2013-02-12 18:35:00,
2013-02-12 10:40:00,48.6,46.2,30.19,ESE,113,0.2,3.6,91,0.00,,,0.00,WUHU216HW,2013-02-12 18:40:00,
2013-02-12 10:45:00,48.8,46.3,30.19,SE,135,1.3,2.5,91,0.00,,,0.00,WUHU216HW,2013-02-12 18:45:00,
2013-02-12 10:50:00,49.1,46.4,30.19,ESE,113,3.4,3.4,90,0.00,,,0.00,WUHU216HW,2013-02-12 18:50:00,
2013-02-12 10:55:00,49.3,46.5,30.19,SE,135,6.3,6.3,90,0.00,,,0.00,WUHU216HW,2013-02-12 18:55:00,
2013-02-12 11:00:00,49.7,46.8,30.19,SE,135,5.8,6.9,90,0.00,,,0.00,WUHU216HW,2013-02-12 19:00:00,
2013-02-12 11:05:00,50.0,47.2,30.19,SE,135,3.6,6.9,90,0.00,,,0.00,WUHU216HW,2013-02-12 19:05:00,
2013-02-12 11:10:00,50.2,47.1,30.19,SSE,158,5.6,6.9,89,0.00,,,0.00,WUHU216HW,2013-02-12 19:10:00,
2013-02-12 11:15:00,50.6,47.1,30.19,ESE,113,2.5,6.7,88,0.00,,,0.00,WUHU216HW,2013-02-12 19:15:00,
2013-02-12 11:20:00,51.1,48.0,30.19,SSE,158,4.3,6.7,89,0.00,,,0.00,WUHU216HW,2013-02-12 19:20:00,
2013-02-12 11:25:00,51.5,48.0,30.20,SE,135,6.3,6.7,88,0.00,,,0.00,WUHU216HW,2013-02-12 19:25:00,
2013-02-12 11:30:00,51.3,47.8,30.19,SE,135,5.4,6.3,88,0.00,,,0.00,WUHU216HW,2013-02-12 19:30:00,
2013-02-12 11:35:00,51.3,47.8,30.20,SE,135,4.7,6.3,88,0.00,,,0.00,WUHU216HW,2013-02-12 19:35:00,
2013-02-12 11:40:00,51.3,47.5,30.20,SE,135,4.7,7.2,87,0.00,,,0.00,WUHU216HW,2013-02-12 19:40:00,
2013-02-12 11:45:00,51.3,47.8,30.20,SE,135,8.1,8.1,88,0.00,,,0.00,WUHU216HW,2013-02-12 19:45:00,
2013-02-12 11:50:00,51.3,47.5,30.20,SE,135,1.1,8.1,87,0.00,,,0.00,WUHU216HW,2013-02-12 19:50:00,
2013-02-12 11:55:00,51.5,47.3,30.19,SSW,203,0.2,8.1,86,0.00,,,0.00,WUHU216HW,2013-02-12 19:55:00,
2013-02-12 12:00:00,51.5,47.1,30.20,SW,225,1.8,2.5,85,0.00,,,0.00,WUHU216HW,2013-02-12 20:00:00,
2013-02-12 12:05:00,51.8,47.4,30.19,SE,135,1.1,2.5,85,0.00,,,0.00,WUHU216HW,2013-02-12 20:05:00,
2013-02-12 12:10:00,52.0,47.4,30.19,SE,135,0.4,2.0,84,0.00,,,0.00,WUHU216HW,2013-02-12 20:10:00,
2013-02-12 12:15:00,52.2,47.2,30.19,SSE,158,10.1,10.3,83,0.00,,,0.00,WUHU216HW,2013-02-12 20:15:00,
2013-02-12 12:20:00,52.0,47.0,30.19,South,180,7.4,10.5,83,0.00,,,0.00,WUHU216HW,2013-02-12 20:20:00,
2013-02-12 12:25:00,51.7,46.6,30.19,South,180,9.8,13.0,83,0.00,,,0.00,WUHU216HW,2013-02-12 20:25:00,
2013-02-12 12:30:00,51.3,46.6,30.19,SSE,158,8.7,13.0,84,0.00,,,0.00,WUHU216HW,2013-02-12 20:30:00,
2013-02-12 12:35:00,51.1,46.5,30.19,SSW,203,7.6,12.1,84,0.00,,,0.00,WUHU216HW,2013-02-12 20:35:00,
2013-02-12 12:40:00,51.1,46.7,30.18,South,180,8.7,10.7,85,0.00,,,0.00,WUHU216HW,2013-02-12 20:40:00,
2013-02-12 12:45:00,50.9,46.5,30.18,SSE,158,8.7,10.7,85,0.00,,,0.00,WUHU216HW,2013-02-12 20:45:00,
2013-02-12 12:50:00,50.9,46.5,30.18,SSE,158,9.8,12.8,85,0.00,,,0.00,WUHU216HW,2013-02-12 20:50:00,
2013-02-12 12:55:00,50.8,46.6,30.18,SSE,158,9.8,12.8,86,0.00,,,0.00,WUHU216HW,2013-02-12 20:55:00,
2013-02-12 13:00:00,50.6,46.4,30.18,SE,135,8.7,11.0,86,0.00,,,0.00,WUHU216HW,2013-02-12 21:00:00,
2013-02-12 13:05:00,50.6,46.4,30.17,SSE,158,9.8,10.7,86,0.00,,,0.00,WUHU216HW,2013-02-12 21:05:00,
2013-02-12 13:10:00,50.6,46.2,30.17,SSE,158,6.9,11.0,85,0.00,,,0.00,WUHU216HW,2013-02-12 21:10:00,
2013-02-12 13:15:00,50.4,46.3,30.17,SSE,158,10.3,11.0,86,0.00,,,0.00,WUHU216HW,2013-02-12 21:15:00,
2013-02-12 13:20:00,50.6,46.4,30.18,South,180,6.3,11.0,86,0.00,,,0.00,WUHU216HW,2013-02-12 21:20:00,
2013-02-12 13:25:00,50.6,46.4,30.18,South,180,9.2,11.2,86,0.00,,,0.00,WUHU216HW,2013-02-12 21:25:00,
2013-02-12 13:30:00,50.6,46.2,30.17,SSE,158,8.3,12.1,85,0.00,,,0.00,WUHU216HW,2013-02-12 21:30:00,
2013-02-12 13:35:00,50.4,46.3,30.17,SSE,158,5.4,12.1,86,0.00,,,0.00,WUHU216HW,2013-02-12 21:35:00,
2013-02-12 13:40:00,50.4,46.3,30.17,SSE,158,7.6,10.7,86,0.00,,,0.00,WUHU216HW,2013-02-12 21:40:00,
2013-02-12 13:45:00,50.4,46.3,30.17,SSE,158,7.6,10.5,86,0.00,,,0.00,WUHU216HW,2013-02-12 21:45:00,
2013-02-12 13:50:00,50.4,46.3,30.16,SE,135,5.8,9.2,86,0.00,,,0.00,WUHU216HW,2013-02-12 21:50:00,
2013-02-12 13:55:00,50.6,46.4,30.16,South,180,5.1,8.5,86,0.00,,,0.00,WUHU216HW,2013-02-12 21:55:00,
2013-02-12 14:00:00,50.8,46.6,30.16,SSE,158,4.7,8.5,86,0.00,,,0.00,WUHU216HW,2013-02-12 22:00:00,
2013-02-12 14:05:00,51.1,47.0,30.17,SE,135,5.8,8.1,86,0.00,,,0.00,WUHU216HW,2013-02-12 22:05:00,
2013-02-12 14:10:00,51.3,47.2,30.17,SE,135,7.6,8.9,86,0.00,,,0.00,WUHU216HW,2013-02-12 22:10:00,
2013-02-12 14:15:00,51.3,47.2,30.17,SSE,158,7.4,8.9,86,0.00,,,0.00,WUHU216HW,2013-02-12 22:15:00,
2013-02-12 14:20:00,51.1,47.0,30.17,SE,135,4.9,8.7,86,0.00,,,0.00,WUHU216HW,2013-02-12 22:20:00,
2013-02-12 14:25:00,51.1,45.2,30.17,NW,315,3.4,7.6,80,0.00,,,0.00,WUHU216HW,2013-02-12 22:25:00,
2013-02-12 14:30:00,51.5,45.2,30.17,NNW,338,0.9,4.9,79,0.00,,,0.00,WUHU216HW,2013-02-12 22:30:00,
2013-02-12 14:35:00,51.5,45.2,30.17,NNE,23,0.2,5.4,79,0.00,,,0.00,WUHU216HW,2013-02-12 22:35:00,
2013-02-12 14:40:00,51.5,45.8,30.17,SE,135,4.7,8.1,81,0.00,,,0.00,WUHU216HW,2013-02-12 22:40:00,
2013-02-12 14:45:00,51.5,46.2,30.17,SSE,158,11.2,11.2,82,0.00,,,0.00,WUHU216HW,2013-02-12 22:45:00,
2013-02-12 14:50:00,51.1,45.8,30.17,SSE,158,6.5,11.2,82,0.00,,,0.00,WUHU216HW,2013-02-12 22:50:00,
2013-02-12 14:55:00,51.1,46.5,30.17,SE,135,5.4,11.2,84,0.00,,,0.00,WUHU216HW,2013-02-12 22:55:00,
2013-02-12 15:00:00,51.1,46.5,30.17,South,180,6.3,9.8,84,0.00,,,0.00,WUHU216HW,2013-02-12 23:00:00,
2013-02-12 15:05:00,50.9,46.5,30.17,SSE,158,8.3,9.8,85,0.00,,,0.00,WUHU216HW,2013-02-12 23:05:00,
2013-02-12 15:10:00,50.9,46.5,30.17,SE,135,10.3,10.3,85,0.00,,,0.00,WUHU216HW,2013-02-12 23:10:00,
2013-02-12 15:15:00,51.1,46.7,30.16,SE,135,8.1,10.3,85,0.00,,,0.00,WUHU216HW,2013-02-12 23:15:00,
2013-02-12 15:20:00,51.1,46.7,30.16,SSE,158,9.2,11.0,85,0.00,,,0.00,WUHU216HW,2013-02-12 23:20:00,
2013-02-12 15:25:00,50.9,46.5,30.16,SSE,158,10.5,12.5,85,0.00,,,0.00,WUHU216HW,2013-02-12 23:25:00,
2013-02-12 15:30:00,51.1,46.7,30.16,SE,135,9.2,13.2,85,0.00,,,0.00,WUHU216HW,2013-02-12 23:30:00,
2013-02-12 15:35:00,50.9,46.5,30.16,SE,135,13.6,13.9,85,0.00,,,0.00,WUHU216HW,2013-02-12 23:35:00,
2013-02-12 15:40:00,50.9,46.5,30.16,SE,135,11.6,13.9,85,0.00,,,0.00,WUHU216HW,2013-02-12 23:40:00,
2013-02-12 15:45:00,50.9,46.5,30.16,South,180,13.6,15.2,85,0.00,,,0.00,WUHU216HW,2013-02-12 23:45:00,
2013-02-12 15:50:00,50.8,46.4,30.16,SE,135,10.7,15.2,85,0.00,,,0.00,WUHU216HW,2013-02-12 23:50:00,
2013-02-12 15:55:00,50.6,46.4,30.15,SSE,158,12.8,13.6,86,0.00,,,0.00,WUHU216HW,2013-02-12 23:55:00,
2013-02-12 16:00:00,50.4,46.3,30.15,SE,135,9.8,14.1,86,0.00,,,0.00,WUHU216HW,2013-02-13 00:00:00,
2013-02-12 16:05:00,50.2,46.1,30.15,SSE,158,9.8,14.1,86,0.00,,,0.00,WUHU216HW,2013-02-13 00:05:00,
2013-02-12 16:10:00,50.2,46.1,30.16,SSE,158,8.5,11.9,86,0.00,,,0.00,WUHU216HW,2013-02-13 00:10:00,
2013-02-12 16:15:00,50.2,46.1,30.16,South,180,6.9,11.9,86,0.00,,,0.00,WUHU216HW,2013-02-13 00:15:00,
2013-02-12 16:20:00,50.2,46.1,30.16,SSW,203,4.0,10.7,86,0.00,,,0.00,WUHU216HW,2013-02-13 00:20:00,
2013-02-12 16:25:00,50.2,46.1,30.16,SE,135,7.6,10.5,86,0.00,,,0.00,WUHU216HW,2013-02-13 00:25:00,
2013-02-12 16:30:00,50.0,45.9,30.16,South,180,6.5,9.2,86,0.00,,,0.00,WUHU216HW,2013-02-13 00:30:00,
2013-02-12 16:35:00,50.0,45.9,30.16,SE,135,7.2,8.1,86,0.00,,,0.00,WUHU216HW,2013-02-13 00:35:00,
2013-02-12 16:40:00,50.0,45.9,30.16,SE,135,6.9,7.6,86,0.00,,,0.00,WUHU216HW,2013-02-13 00:40:00,
2013-02-12 16:45:00,50.0,46.3,30.16,SE,135,6.7,7.8,87,0.00,,,0.00,WUHU216HW,2013-02-13 00:45:00,
2013-02-12 16:50:00,50.0,45.9,30.16,SE,135,6.9,7.8,86,0.00,,,0.00,WUHU216HW,2013-02-13 00:50:00,
2013-02-12 16:55:00,49.9,45.8,30.16,SE,135,7.6,9.8,86,0.00,,,0.00,WUHU216HW,2013-02-13 00:55:00,
2013-02-12 17:00:00,49.7,45.9,30.16,SSE,158,7.8,9.8,87,0.00,,,0.00,WUHU216HW,2013-02-13 01:00:00,
2013-02-12 17:05:00,49.5,45.7,30.16,SSE,158,8.1,9.2,87,0.00,,,0.00,WUHU216HW,2013-02-13 01:05:00,
2013-02-12 17:10:00,49.5,45.7,30.16,SSE,158,8.5,9.2,87,0.00,,,0.00,WUHU216HW,2013-02-13 01:10:00,
2013-02-12 17:15:00,49.3,45.5,30.16,SSE,158,8.7,8.9,87,0.00,,,0.00,WUHU216HW,2013-02-13 01:15:00,
2013-02-12 17:20:00,49.3,45.5,30.16,SSE,158,6.9,8.9,87,0.00,,,0.00,WUHU216HW,2013-02-13 01:20:00,
2013-02-12 17:25:00,49.1,45.4,30.16,SSE,158,6.3,8.7,87,0.00,,,0.00,WUHU216HW,2013-02-13 01:25:00,
2013-02-12 17:30:00,49.1,45.4,30.16,SSE,158,6.9,8.7,87,0.00,,,0.00,WUHU216HW,2013-02-13 01:30:00,
2013-02-12 17:35:00,49.0,45.5,30.16,SSE,158,6.7,7.8,88,0.00,,,0.00,WUHU216HW,2013-02-13 01:35:00,
2013-02-12 17:40:00,48.8,45.4,30.15,SSE,158,4.9,7.4,88,0.00,,,0.00,WUHU216HW,2013-02-13 01:40:00,
2013-02-12 17:45:00,48.8,45.4,30.16,SSE,158,4.9,6.9,88,0.00,,,0.00,WUHU216HW,2013-02-13 01:45:00,
2013-02-12 17:50:00,48.8,45.4,30.16,SSE,158,5.6,7.2,88,0.00,,,0.00,WUHU216HW,2013-02-13 01:50:00,
2013-02-12 17:55:00,48.6,45.2,30.16,SSE,158,6.3,7.6,88,0.00,,,0.00,WUHU216HW,2013-02-13 01:55:00,
2013-02-12 18:00:00,48.6,45.2,30.16,SSE,158,6.3,7.6,88,0.00,,,0.00,WUHU216HW,2013-02-13 02:00:00,
2013-02-12 18:05:00,48.6,45.2,30.16,SE,135,4.0,6.9,88,0.00,,,0.00,WUHU216HW,2013-02-13 02:05:00,
2013-02-12 18:10:00,48.4,45.1,30.17,SSE,158,3.8,6.7,88,0.00,,,0.00,WUHU216HW,2013-02-13 02:10:00,
2013-02-12 18:15:00,48.4,45.4,30.17,East,90,0.0,4.9,89,0.00,,,0.00,WUHU216HW,2013-02-13 02:15:00,
2013-02-12 18:20:00,48.4,45.1,30.17,SE,135,4.3,4.3,88,0.00,,,0.00,WUHU216HW,2013-02-13 02:20:00,
2013-02-12 18:25:00,48.4,45.1,30.17,SSE,158,3.4,4.5,88,0.00,,,0.00,WUHU216HW,2013-02-13 02:25:00,
2013-02-12 18:30:00,48.2,45.2,30.17,South,180,1.1,4.5,89,0.00,,,0.00,WUHU216HW,2013-02-13 02:30:00,
2013-02-12 18:35:00,48.2,44.9,30.17,SSE,158,3.1,6.3,88,0.00,,,0.00,WUHU216HW,2013-02-13 02:35:00,
2013-02-12 18:40:00,48.2,45.2,30.17,South,180,0.0,6.3,89,0.00,,,0.00,WUHU216HW,2013-02-13 02:40:00,
2013-02-12 18:45:00,48.2,44.9,30.18,South,180,0.4,3.1,88,0.00,,,0.00,WUHU216HW,2013-02-13 02:45:00,
2013-02-12 18:50:00,48.2,44.9,30.17,SSW,203,1.8,1.8,88,0.00,,,0.00,WUHU216HW,2013-02-13 02:50:00,
2013-02-12 18:55:00,48.4,45.1,30.17,South,180,1.1,4.5,88,0.00,,,0.00,WUHU216HW,2013-02-13 02:55:00,
2013-02-12 19:01:00,48.6,45.2,30.16,SSE,158,0.2,4.5,88,0.00,,,0.00,WUHU216HW,2013-02-13 03:01:00,
2013-02-12 19:06:00,48.6,44.9,30.17,WSW,248,0.0,3.8,87,0.00,,,0.00,WUHU216HW,2013-02-13 03:06:00,
2013-02-12 19:11:00,48.6,44.9,30.16,SE,135,2.2,4.0,87,0.00,,,0.00,WUHU216HW,2013-02-13 03:11:00,
2013-02-12 19:16:00,48.4,45.1,30.17,SSE,158,1.6,4.0,88,0.00,,,0.00,WUHU216HW,2013-02-13 03:16:00,
2013-02-12 19:21:00,48.2,44.9,30.17,SE,135,1.8,3.6,88,0.00,,,0.00,WUHU216HW,2013-02-13 03:21:00,
2013-02-12 19:26:00,48.2,44.9,30.17,SSE,158,2.2,3.1,88,0.00,,,0.00,WUHU216HW,2013-02-13 03:26:00,
2013-02-12 19:31:00,48.1,44.7,30.17,SE,135,4.0,4.0,88,0.00,,,0.00,WUHU216HW,2013-02-13 03:31:00,
2013-02-12 19:36:00,47.9,44.6,30.17,SE,135,4.0,5.1,88,0.00,,,0.00,WUHU216HW,2013-02-13 03:36:00,
2013-02-12 19:41:00,47.9,44.6,30.17,SE,135,4.5,5.1,88,0.00,,,0.00,WUHU216HW,2013-02-13 03:41:00,
2013-02-12 19:46:00,47.7,44.4,30.17,SE,135,2.5,4.7,88,0.00,,,0.00,WUHU216HW,2013-02-13 03:46:00,
2013-02-12 19:51:00,47.5,44.2,30.17,SE,135,3.8,4.7,88,0.00,,,0.00,WUHU216HW,2013-02-13 03:51:00,
2013-02-12 19:56:00,47.5,44.5,30.16,SSE,158,4.5,4.5,89,0.00,,,0.00,WUHU216HW,2013-02-13 03:56:00,
2013-02-12 20:01:00,47.3,44.4,30.16,South,180,2.9,4.9,89,0.00,,,0.00,WUHU216HW,2013-02-13 04:01:00,
2013-02-12 20:06:00,47.3,44.4,30.17,SSW,203,0.4,4.9,89,0.00,,,0.00,WUHU216HW,2013-02-13 04:06:00,
2013-02-12 20:11:00,47.3,44.4,30.16,ESE,113,0.2,3.1,89,0.00,,,0.00,WUHU216HW,2013-02-13 04:11:00,
2013-02-12 20:16:00,47.3,44.4,30.16,ESE,113,3.4,3.4,89,0.00,,,0.00,WUHU216HW,2013-02-13 04:16:00,
2013-02-12 20:21:00,47.3,44.4,30.16,ESE,113,0.4,4.5,89,0.00,,,0.00,WUHU216HW,2013-02-13 04:21:00,
2013-02-12 20:26:00,47.3,44.4,30.16,SE,135,1.1,4.5,89,0.00,,,0.00,WUHU216HW,2013-02-13 04:26:00,
2013-02-12 20:31:00,47.3,44.4,30.16,ESE,113,1.3,2.0,89,0.00,,,0.00,WUHU216HW,2013-02-13 04:31:00,
2013-02-12 20:36:00,47.3,44.4,30.16,WSW,248,0.0,2.0,89,0.00,,,0.00,WUHU216HW,2013-02-13 04:36:00,
2013-02-12 20:41:00,47.2,44.2,30.16,ESE,113,0.4,1.3,89,0.00,,,0.00,WUHU216HW,2013-02-13 04:41:00,
2013-02-12 20:46:00,47.2,43.8,30.16,SE,135,0.0,1.3,88,0.00,,,0.00,WUHU216HW,2013-02-13 04:46:00,
2013-02-12 20:51:00,47.2,43.8,30.16,SE,135,0.0,0.4,88,0.00,,,0.00,WUHU216HW,2013-02-13 04:51:00,
2013-02-12 20:56:00,47.2,43.8,30.15,SSE,158,3.4,4.0,88,0.00,,,0.00,WUHU216HW,2013-02-13 04:56:00,
2013-02-12 21:00:00,47.3,44.0,30.15,SSW,203,4.7,6.0,88,0.00,,,0.00,WUHU216HW,2013-02-13 05:00:00,
2013-02-12 21:05:00,47.3,44.0,30.15,SSE,158,3.4,6.0,88,0.00,,,0.00,WUHU216HW,2013-02-13 05:05:00,
2013-02-12 21:10:00,47.3,44.0,30.15,South,180,3.4,6.3,88,0.00,,,0.00,WUHU216HW,2013-02-13 05:10:00,
2013-02-12 21:15:00,47.3,44.0,30.14,South,180,3.6,6.3,88,0.00,,,0.00,WUHU216HW,2013-02-13 05:15:00,
2013-02-12 21:20:00,47.5,44.2,30.15,SSE,158,3.1,4.5,88,0.00,,,0.00,WUHU216HW,2013-02-13 05:20:00,
2013-02-12 21:25:00,47.7,44.0,30.14,SE,135,2.5,5.6,87,0.00,,,0.00,WUHU216HW,2013-02-13 05:25:00,
2013-02-12 21:30:00,47.9,44.2,30.14,SSE,158,4.0,5.6,87,0.00,,,0.00,WUHU216HW,2013-02-13 05:30:00,
2013-02-12 21:35:00,47.9,44.2,30.15,SSW,203,1.8,6.5,87,0.00,,,0.00,WUHU216HW,2013-02-13 05:35:00,
2013-02-12 21:40:00,47.9,44.2,30.14,SSE,158,4.3,6.5,87,0.00,,,0.00,WUHU216HW,2013-02-13 05:40:00,
2013-02-12 21:45:00,47.9,43.9,30.15,ESE,113,2.5,4.3,86,0.00,,,0.00,WUHU216HW,2013-02-13 05:45:00,
2013-02-12 21:50:00,48.1,43.7,30.15,WSW,248,5.8,7.6,85,0.00,,,0.00,WUHU216HW,2013-02-13 05:50:00,
2013-02-12 21:55:00,48.2,43.9,30.15,WSW,248,4.0,7.6,85,0.00,,,0.00,WUHU216HW,2013-02-13 05:55:00,
2013-02-12 22:00:00,48.2,43.9,30.15,WSW,248,2.5,5.8,85,0.00,,,0.00,WUHU216HW,2013-02-13 06:00:00,
2013-02-12 22:05:00,48.4,44.1,30.15,SSW,203,2.5,5.4,85,0.00,,,0.00,WUHU216HW,2013-02-13 06:05:00,
2013-02-12 22:10:00,48.2,43.9,30.15,SSE,158,0.9,5.4,85,0.00,,,0.00,WUHU216HW,2013-02-13 06:10:00,
2013-02-12 22:15:00,48.2,43.9,30.16,WSW,248,2.2,5.1,85,0.00,,,0.00,WUHU216HW,2013-02-13 06:15:00,
2013-02-12 22:20:00,48.2,43.9,30.16,SW,225,2.5,5.1,85,0.00,,,0.00,WUHU216HW,2013-02-13 06:20:00,
2013-02-12 22:25:00,48.2,44.3,30.16,SSW,203,1.1,3.8,86,0.00,,,0.00,WUHU216HW,2013-02-13 06:25:00,
2013-02-12 22:30:00,48.2,44.3,30.16,SSW,203,4.0,4.0,86,0.00,,,0.00,WUHU216HW,2013-02-13 06:30:00,
2013-02-12 22:35:00,48.2,44.3,30.16,SE,135,1.1,4.0,86,0.00,,,0.00,WUHU216HW,2013-02-13 06:35:00,
2013-02-12 22:40:00,48.2,44.3,30.16,South,180,1.6,4.0,86,0.00,,,0.00,WUHU216HW,2013-02-13 06:40:00,
2013-02-12 22:45:00,48.2,44.3,30.16,SSE,158,4.0,4.3,86,0.00,,,0.00,WUHU216HW,2013-02-13 06:45:00,
2013-02-12 22:50:00,48.1,44.1,30.16,SE,135,2.2,4.3,86,0.00,,,0.00,WUHU216HW,2013-02-13 06:50:00,
2013-02-12 22:55:00,47.9,43.9,30.16,SSE,158,1.3,3.8,86,0.00,,,0.00,WUHU216HW,2013-02-13 06:55:00,
2013-02-12 23:00:00,47.9,44.2,30.16,SE,135,1.1,2.5,87,0.00,,,0.00,WUHU216HW,2013-02-13 07:00:00,
2013-02-12 23:05:00,47.7,44.0,30.16,SW,225,0.2,1.8,87,0.00,,,0.00,WUHU216HW,2013-02-13 07:05:00,
2013-02-12 23:10:00,47.5,43.8,30.16,SE,135,1.6,1.8,87,0.00,,,0.00,WUHU216HW,2013-02-13 07:10:00,
2013-02-12 23:15:00,47.5,43.8,30.16,ESE,113,2.5,2.5,87,0.00,,,0.00,WUHU216HW,2013-02-13 07:15:00,
2013-02-12 23:20:00,47.3,44.0,30.16,South,180,0.4,2.5,88,0.00,,,0.00,WUHU216HW,2013-02-13 07:20:00,
2013-02-12 23:25:00,47.2,43.8,30.16,WSW,248,0.2,2.5,88,0.00,,,0.00,WUHU216HW,2013-02-13 07:25:00,
2013-02-12 23:30:00,46.8,43.8,30.16,WNW,293,0.0,1.3,89,0.00,,,0.00,WUHU216HW,2013-02-13 07:30:00,
2013-02-12 23:35:00,46.6,43.7,30.16,WSW,248,0.0,1.1,89,0.00,,,0.00,WUHU216HW,2013-02-13 07:35:00,
2013-02-12 23:40:00,46.4,43.7,30.16,NW,315,1.1,1.6,90,0.00,,,0.00,WUHU216HW,2013-02-13 07:40:00,
2013-02-12 23:45:00,46.3,43.8,30.16,NW,315,1.1,1.8,91,0.00,,,0.00,WUHU216HW,2013-02-13 07:45:00,
2013-02-12 23:50:00,46.1,43.4,30.16,NNW,338,0.0,1.8,90,0.00,,,0.00,WUHU216HW,2013-02-13 07:50:00,
2013-02-12 23:55:00,46.1,43.4,30.16,SE,135,0.4,1.1,90,0.00,,,0.00,WUHU216HW,2013-02-13 07:55:00,